sensor_id;sensor_type;location;lat;lon;timestamp;pressure;altitude;pressure_sealevel;temperature;humidity
24558;BME280;12726;49.148;8.582;2023-03-03T00:00:18;100679.34;;;1.45;88.09
24558;BME280;12726;49.148;8.582;2023-03-03T00:03:05;100681.84;;;1.46;88.36
24558;BME280;12726;49.148;8.582;2023-03-03T00:05:52;100671.19;;;1.56;88.76
24558;BME280;12726;49.148;8.582;2023-03-03T00:08:38;100677.88;;;1.60;89.07
24558;BME280;12726;49.148;8.582;2023-03-03T00:11:25;100678.88;;;1.49;88.78
24558;BME280;12726;49.148;8.582;2023-03-03T00:14:17;100683.56;;;1.38;88.75
24558;BME280;12726;49.148;8.582;2023-03-03T00:17:15;100684.97;;;1.32;89.10
24558;BME280;12726;49.148;8.582;2023-03-03T00:20:24;100683.06;;;1.25;89.00
24558;BME280;12726;49.148;8.582;2023-03-03T00:23:19;100688.25;;;1.16;88.95
24558;BME280;12726;49.148;8.582;2023-03-03T00:26:16;100686.19;;;1.10;89.02
24558;BME280;12726;49.148;8.582;2023-03-03T00:29:23;100694.56;;;1.06;89.24
24558;BME280;12726;49.148;8.582;2023-03-03T00:32:25;100686.50;;;0.98;89.68
24558;BME280;12726;49.148;8.582;2023-03-03T00:35:23;100690.41;;;0.94;89.88
24558;BME280;12726;49.148;8.582;2023-03-03T00:38:11;100685.16;;;0.84;89.94
24558;BME280;12726;49.148;8.582;2023-03-03T00:40:58;100684.72;;;0.89;90.03
24558;BME280;12726;49.148;8.582;2023-03-03T00:43:43;100687.78;;;0.84;90.08
24558;BME280;12726;49.148;8.582;2023-03-03T00:46:30;100691.41;;;0.83;90.31
24558;BME280;12726;49.148;8.582;2023-03-03T00:49:22;100685.72;;;0.78;90.40
24558;BME280;12726;49.148;8.582;2023-03-03T00:52:12;100700.09;;;0.75;90.48
24558;BME280;12726;49.148;8.582;2023-03-03T00:54:57;100698.84;;;0.70;90.45
24558;BME280;12726;49.148;8.582;2023-03-03T00:57:43;100692.72;;;0.69;90.39
24558;BME280;12726;49.148;8.582;2023-03-03T01:00:28;100691.16;;;0.67;90.47
24558;BME280;12726;49.148;8.582;2023-03-03T01:03:17;100703.31;;;0.60;90.17
24558;BME280;12726;49.148;8.582;2023-03-03T01:06:03;100695.53;;;0.49;90.49
24558;BME280;12726;49.148;8.582;2023-03-03T01:08:49;100700.81;;;0.39;90.76
24558;BME280;12726;49.148;8.582;2023-03-03T01:11:34;100705.97;;;0.31;90.75
24558;BME280;12726;49.148;8.582;2023-03-03T01:14:20;100693.69;;;0.30;90.86
24558;BME280;12726;49.148;8.582;2023-03-03T01:17:06;100688.28;;;0.31;91.23
24558;BME280;12726;49.148;8.582;2023-03-03T01:19:52;100693.16;;;0.26;91.38
24558;BME280;12726;49.148;8.582;2023-03-03T01:22:38;100696.38;;;0.20;91.59
24558;BME280;12726;49.148;8.582;2023-03-03T01:25:23;100692.59;;;0.13;91.76
24558;BME280;12726;49.148;8.582;2023-03-03T01:28:08;100687.69;;;0.09;92.03
24558;BME280;12726;49.148;8.582;2023-03-03T01:30:59;100698.97;;;0.01;92.17
24558;BME280;12726;49.148;8.582;2023-03-03T01:33:44;100689.91;;;-0.06;91.99
24558;BME280;12726;49.148;8.582;2023-03-03T01:36:32;100685.31;;;-0.04;92.31
24558;BME280;12726;49.148;8.582;2023-03-03T01:39:17;100690.47;;;-0.03;92.30
24558;BME280;12726;49.148;8.582;2023-03-03T01:42:03;100699.09;;;-0.10;92.12
24558;BME280;12726;49.148;8.582;2023-03-03T01:45:12;100698.81;;;-0.17;92.09
24558;BME280;12726;49.148;8.582;2023-03-03T01:48:00;100688.22;;;-0.17;92.76
24558;BME280;12726;49.148;8.582;2023-03-03T01:50:52;100696.44;;;-0.20;92.88
24558;BME280;12726;49.148;8.582;2023-03-03T01:53:44;100683.63;;;-0.24;92.92
24558;BME280;12726;49.148;8.582;2023-03-03T01:56:30;100694.34;;;-0.26;92.92
24558;BME280;12726;49.148;8.582;2023-03-03T01:59:18;100685.28;;;-0.33;93.24
24558;BME280;12726;49.148;8.582;2023-03-03T02:02:05;100691.28;;;-0.31;93.19
24558;BME280;12726;49.148;8.582;2023-03-03T02:04:50;100695.00;;;-0.33;93.38
24558;BME280;12726;49.148;8.582;2023-03-03T02:07:37;100694.47;;;-0.37;93.29
24558;BME280;12726;49.148;8.582;2023-03-03T02:10:24;100695.44;;;-0.38;93.38
24558;BME280;12726;49.148;8.582;2023-03-03T02:13:09;100689.56;;;-0.42;93.45
24558;BME280;12726;49.148;8.582;2023-03-03T02:15:54;100686.78;;;-0.40;93.65
24558;BME280;12726;49.148;8.582;2023-03-03T02:18:41;100691.09;;;-0.39;93.78
24558;BME280;12726;49.148;8.582;2023-03-03T02:21:26;100695.44;;;-0.38;93.58
24558;BME280;12726;49.148;8.582;2023-03-03T02:24:15;100694.47;;;-0.37;94.34
24558;BME280;12726;49.148;8.582;2023-03-03T02:27:03;100694.47;;;-0.37;94.31
24558;BME280;12726;49.148;8.582;2023-03-03T02:29:48;100691.94;;;-0.38;94.31
24558;BME280;12726;49.148;8.582;2023-03-03T02:32:35;100698.47;;;-0.43;94.33
24558;BME280;12726;49.148;8.582;2023-03-03T02:35:27;100690.09;;;-0.48;94.12
24558;BME280;12726;49.148;8.582;2023-03-03T02:38:20;100696.22;;;-0.47;94.25
24558;BME280;12726;49.148;8.582;2023-03-03T02:41:11;100689.56;;;-0.51;94.40
24558;BME280;12726;49.148;8.582;2023-03-03T02:44:03;100692.56;;;-0.56;94.54
24558;BME280;12726;49.148;8.582;2023-03-03T02:46:51;100690.22;;;-0.59;94.52
24558;BME280;12726;49.148;8.582;2023-03-03T02:49:36;100687.81;;;-0.62;94.53
24558;BME280;12726;49.148;8.582;2023-03-03T02:52:22;100698.09;;;-0.68;94.49
24558;BME280;12726;49.148;8.582;2023-03-03T02:55:08;100685.28;;;-0.73;94.63
24558;BME280;12726;49.148;8.582;2023-03-03T02:57:54;100700.44;;;-0.75;94.90
24558;BME280;12726;49.148;8.582;2023-03-03T03:00:40;100689.16;;;-0.77;94.79
24558;BME280;12726;49.148;8.582;2023-03-03T03:03:26;100695.56;;;-0.80;94.74
24558;BME280;12726;49.148;8.582;2023-03-03T03:06:11;100697.81;;;-0.75;94.75
24558;BME280;12726;49.148;8.582;2023-03-03T03:08:57;100698.47;;;-0.83;94.29
24558;BME280;12726;49.148;8.582;2023-03-03T03:11:43;100702.88;;;-0.93;93.83
24558;BME280;12726;49.148;8.582;2023-03-03T03:14:28;100706.31;;;-1.02;94.12
24558;BME280;12726;49.148;8.582;2023-03-03T03:17:15;100695.13;;;-1.05;94.25
24558;BME280;12726;49.148;8.582;2023-03-03T03:20:00;100700.44;;;-1.05;94.27
24558;BME280;12726;49.148;8.582;2023-03-03T03:22:45;100703.28;;;-1.18;94.44
24558;BME280;12726;49.148;8.582;2023-03-03T03:25:31;100714.50;;;-1.26;94.28
24558;BME280;12726;49.148;8.582;2023-03-03T03:28:17;100714.78;;;-1.29;94.71
24558;BME280;12726;49.148;8.582;2023-03-03T03:31:04;100699.16;;;-1.32;94.62
24558;BME280;12726;49.148;8.582;2023-03-03T03:33:51;100707.22;;;-1.33;94.69
24558;BME280;12726;49.148;8.582;2023-03-03T03:36:36;100703.72;;;-1.34;94.76
24558;BME280;12726;49.148;8.582;2023-03-03T03:39:22;100703.72;;;-1.34;95.24
24558;BME280;12726;49.148;8.582;2023-03-03T03:42:08;100701.25;;;-1.35;95.49
24558;BME280;12726;49.148;8.582;2023-03-03T03:44:54;100710.69;;;-1.33;95.17
24558;BME280;12726;49.148;8.582;2023-03-03T03:47:39;100713.59;;;-1.36;95.62
24558;BME280;12726;49.148;8.582;2023-03-03T03:50:26;100716.50;;;-1.39;95.53
24558;BME280;12726;49.148;8.582;2023-03-03T03:53:12;100724.66;;;-1.42;95.71
24558;BME280;12726;49.148;8.582;2023-03-03T03:55:57;100721.34;;;-1.44;95.64
24558;BME280;12726;49.148;8.582;2023-03-03T03:58:43;100725.31;;;-1.49;95.20
24558;BME280;12726;49.148;8.582;2023-03-03T04:01:28;100719.69;;;-1.56;95.51
24558;BME280;12726;49.148;8.582;2023-03-03T04:04:13;100719.25;;;-1.61;95.40
24558;BME280;12726;49.148;8.582;2023-03-03T04:07:00;100716.03;;;-1.65;95.28
24558;BME280;12726;49.148;8.582;2023-03-03T04:09:46;100724.91;;;-1.66;95.83
24558;BME280;12726;49.148;8.582;2023-03-03T04:12:31;100732.22;;;-1.69;95.89
24558;BME280;12726;49.148;8.582;2023-03-03T04:15:21;100729.84;;;-1.72;95.68
24558;BME280;12726;49.148;8.582;2023-03-03T04:18:07;100736.22;;;-1.75;95.64
24558;BME280;12726;49.148;8.582;2023-03-03T04:20:53;100734.41;;;-1.74;95.92
24558;BME280;12726;49.148;8.582;2023-03-03T04:23:40;100733.69;;;-1.76;96.03
24558;BME280;12726;49.148;8.582;2023-03-03T04:26:25;100726.72;;;-1.77;96.48
24558;BME280;12726;49.148;8.582;2023-03-03T04:29:11;100729.13;;;-1.74;96.47
24558;BME280;12726;49.148;8.582;2023-03-03T04:31:56;100728.41;;;-1.76;96.32
24558;BME280;12726;49.148;8.582;2023-03-03T04:34:42;100727.84;;;-1.80;96.46
24558;BME280;12726;49.148;8.582;2023-03-03T04:37:27;100723.06;;;-1.86;96.49
24558;BME280;12726;49.148;8.582;2023-03-03T04:40:14;100724.88;;;-1.86;96.73
24558;BME280;12726;49.148;8.582;2023-03-03T04:43:01;100730.38;;;-1.89;96.96
24558;BME280;12726;49.148;8.582;2023-03-03T04:45:47;100728.25;;;-1.95;97.06
24558;BME280;12726;49.148;8.582;2023-03-03T04:48:32;100731.38;;;-2.02;97.64
24558;BME280;12726;49.148;8.582;2023-03-03T04:51:17;100733.56;;;-2.07;98.38
24558;BME280;12726;49.148;8.582;2023-03-03T04:54:03;100726.97;;;-2.12;98.21
24558;BME280;12726;49.148;8.582;2023-03-03T04:56:50;100733.06;;;-2.12;98.61
24558;BME280;12726;49.148;8.582;2023-03-03T04:59:35;100732.22;;;-2.12;98.94
24558;BME280;12726;49.148;8.582;2023-03-03T05:02:21;100730.59;;;-2.13;98.87
24558;BME280;12726;49.148;8.582;2023-03-03T05:05:07;100733.06;;;-2.12;99.45
24558;BME280;12726;49.148;8.582;2023-03-03T05:07:54;100735.47;;;-2.09;99.40
24558;BME280;12726;49.148;8.582;2023-03-03T05:10:39;100741.59;;;-2.08;99.63
24558;BME280;12726;49.148;8.582;2023-03-03T05:13:26;100741.72;;;-2.10;99.46
24558;BME280;12726;49.148;8.582;2023-03-03T05:16:12;100755.75;;;-2.09;99.80
24558;BME280;12726;49.148;8.582;2023-03-03T05:18:58;100749.75;;;-2.11;99.57
24558;BME280;12726;49.148;8.582;2023-03-03T05:21:43;100756.81;;;-2.12;99.79
24558;BME280;12726;49.148;8.582;2023-03-03T05:24:29;100768.94;;;-2.09;99.86
24558;BME280;12726;49.148;8.582;2023-03-03T05:27:14;100764.50;;;-2.09;100.00
24558;BME280;12726;49.148;8.582;2023-03-03T05:30:01;100770.00;;;-2.12;100.00
24558;BME280;12726;49.148;8.582;2023-03-03T05:32:46;100764.72;;;-2.12;100.00
24558;BME280;12726;49.148;8.582;2023-03-03T05:35:33;100771.81;;;-2.12;100.00
24558;BME280;12726;49.148;8.582;2023-03-03T05:38:18;100770.25;;;-2.15;100.00
24558;BME280;12726;49.148;8.582;2023-03-03T05:41:04;100770.25;;;-2.15;100.00
24558;BME280;12726;49.148;8.582;2023-03-03T05:43:49;100788.72;;;-2.15;100.00
24558;BME280;12726;49.148;8.582;2023-03-03T05:46:36;100784.28;;;-2.14;100.00
24558;BME280;12726;49.148;8.582;2023-03-03T05:49:21;100794.69;;;-2.13;100.00
24558;BME280;12726;49.148;8.582;2023-03-03T05:52:07;100798.19;;;-2.12;100.00
24558;BME280;12726;49.148;8.582;2023-03-03T05:54:52;100798.78;;;-2.09;100.00
24558;BME280;12726;49.148;8.582;2023-03-03T05:57:37;100796.72;;;-2.05;100.00
24558;BME280;12726;49.148;8.582;2023-03-03T06:00:23;100808.63;;;-2.00;100.00
24558;BME280;12726;49.148;8.582;2023-03-03T06:03:09;100799.59;;;-1.97;100.00
24558;BME280;12726;49.148;8.582;2023-03-03T06:05:54;100810.88;;;-1.95;100.00
24558;BME280;12726;49.148;8.582;2023-03-03T06:08:40;100806.91;;;-1.89;100.00
24558;BME280;12726;49.148;8.582;2023-03-03T06:11:25;100809.03;;;-1.83;100.00
24558;BME280;12726;49.148;8.582;2023-03-03T06:14:11;100806.75;;;-1.77;100.00
24558;BME280;12726;49.148;8.582;2023-03-03T06:16:56;100818.75;;;-1.73;100.00
24558;BME280;12726;49.148;8.582;2023-03-03T06:19:43;100812.50;;;-1.72;100.00
24558;BME280;12726;49.148;8.582;2023-03-03T06:22:29;100814.19;;;-1.71;100.00
24558;BME280;12726;49.148;8.582;2023-03-03T06:25:15;100819.22;;;-1.68;100.00
24558;BME280;12726;49.148;8.582;2023-03-03T06:28:01;100827.13;;;-1.68;100.00
24558;BME280;12726;49.148;8.582;2023-03-03T06:30:46;100825.44;;;-1.69;99.82
24558;BME280;12726;49.148;8.582;2023-03-03T06:33:31;100829.78;;;-1.68;100.00
24558;BME280;12726;49.148;8.582;2023-03-03T06:36:18;100833.97;;;-1.65;99.78
24558;BME280;12726;49.148;8.582;2023-03-03T06:39:04;100836.97;;;-1.59;100.00
24558;BME280;12726;49.148;8.582;2023-03-03T06:41:49;100844.38;;;-1.52;99.99
24558;BME280;12726;49.148;8.582;2023-03-03T06:44:35;100844.47;;;-1.43;100.00
24558;BME280;12726;49.148;8.582;2023-03-03T06:47:20;100841.22;;;-1.35;99.98
24558;BME280;12726;49.148;8.582;2023-03-03T06:50:06;100839.34;;;-1.24;99.73
24558;BME280;12726;49.148;8.582;2023-03-03T06:53:00;100832.94;;;-1.10;99.08
24558;BME280;12726;49.148;8.582;2023-03-03T06:55:46;100842.25;;;-1.06;98.25
24558;BME280;12726;49.148;8.582;2023-03-03T06:58:33;100841.91;;;-1.01;98.47
24558;BME280;12726;49.148;8.582;2023-03-03T07:01:18;100845.44;;;-0.91;98.30
24558;BME280;12726;49.148;8.582;2023-03-03T07:04:10;100846.47;;;-0.83;98.23
24558;BME280;12726;49.148;8.582;2023-03-03T07:06:59;100849.88;;;-0.71;98.12
24558;BME280;12726;49.148;8.582;2023-03-03T07:09:53;100854.03;;;-0.57;98.35
24558;BME280;12726;49.148;8.582;2023-03-03T07:12:38;100843.94;;;-0.43;98.32
24558;BME280;12726;49.148;8.582;2023-03-03T07:15:28;100852.34;;;-0.28;98.15
24558;BME280;12726;49.148;8.582;2023-03-03T07:18:39;100848.16;;;-0.10;97.91
24558;BME280;12726;49.148;8.582;2023-03-03T07:21:30;100846.69;;;0.07;97.63
24558;BME280;12726;49.148;8.582;2023-03-03T07:24:24;100842.25;;;0.17;96.74
24558;BME280;12726;49.148;8.582;2023-03-03T07:27:16;100856.34;;;0.37;96.50
24558;BME280;12726;49.148;8.582;2023-03-03T07:30:19;100856.94;;;0.50;96.04
24558;BME280;12726;49.148;8.582;2023-03-03T07:33:18;100848.75;;;0.63;95.70
24558;BME280;12726;49.148;8.582;2023-03-03T07:36:17;100865.78;;;0.70;95.02
24558;BME280;12726;49.148;8.582;2023-03-03T07:39:20;100873.44;;;0.73;94.17
24558;BME280;12726;49.148;8.582;2023-03-03T07:42:19;100884.06;;;0.83;93.90
24558;BME280;12726;49.148;8.582;2023-03-03T07:45:21;100878.06;;;0.90;94.09
24558;BME280;12726;49.148;8.582;2023-03-03T07:48:16;100894.53;;;1.03;93.96
24558;BME280;12726;49.148;8.582;2023-03-03T07:51:05;100891.06;;;1.12;93.66
24558;BME280;12726;49.148;8.582;2023-03-03T07:54:13;100875.56;;;1.27;93.54
24558;BME280;12726;49.148;8.582;2023-03-03T07:57:18;100877.47;;;1.44;92.76
24558;BME280;12726;49.148;8.582;2023-03-03T08:03:35;100883.06;;;1.98;90.78
24558;BME280;12726;49.148;8.582;2023-03-03T08:06:41;100891.06;;;2.25;90.06
24558;BME280;12726;49.148;8.582;2023-03-03T08:09:34;100892.97;;;2.60;88.25
24558;BME280;12726;49.148;8.582;2023-03-03T08:12:39;100887.06;;;2.84;86.36
24558;BME280;12726;49.148;8.582;2023-03-03T08:15:30;100889.72;;;3.63;84.74
24558;BME280;12726;49.148;8.582;2023-03-03T08:18:26;100886.38;;;4.12;80.98
24558;BME280;12726;49.148;8.582;2023-03-03T08:21:14;100886.66;;;5.01;77.47
24558;BME280;12726;49.148;8.582;2023-03-03T08:24:00;100883.97;;;5.90;73.52
24558;BME280;12726;49.148;8.582;2023-03-03T08:26:45;100881.88;;;6.95;69.33
24558;BME280;12726;49.148;8.582;2023-03-03T08:29:30;100874.72;;;7.85;66.01
24558;BME280;12726;49.148;8.582;2023-03-03T08:32:17;100875.78;;;8.43;60.69
24558;BME280;12726;49.148;8.582;2023-03-03T08:35:02;100882.78;;;8.29;60.69
24558;BME280;12726;49.148;8.582;2023-03-03T08:37:50;100882.75;;;9.09;58.20
24558;BME280;12726;49.148;8.582;2023-03-03T08:40:35;100877.84;;;9.62;56.16
24558;BME280;12726;49.148;8.582;2023-03-03T08:43:21;100880.34;;;9.91;53.31
24558;BME280;12726;49.148;8.582;2023-03-03T08:46:07;100888.50;;;10.39;52.63
24558;BME280;12726;49.148;8.582;2023-03-03T08:48:55;100894.50;;;10.82;51.30
24558;BME280;12726;49.148;8.582;2023-03-03T08:51:41;100904.34;;;10.55;49.64
24558;BME280;12726;49.148;8.582;2023-03-03T08:54:26;100904.22;;;10.76;50.49
24558;BME280;12726;49.148;8.582;2023-03-03T08:57:11;100905.38;;;11.15;50.03
24558;BME280;12726;49.148;8.582;2023-03-03T08:59:57;100899.75;;;11.10;50.13
24558;BME280;12726;49.148;8.582;2023-03-03T09:02:42;100901.25;;;11.19;48.63
24558;BME280;12726;49.148;8.582;2023-03-03T09:05:29;100905.03;;;11.64;48.35
24558;BME280;12726;49.148;8.582;2023-03-03T09:08:14;100908.72;;;12.22;46.88
24558;BME280;12726;49.148;8.582;2023-03-03T09:11:00;100907.88;;;12.35;46.02
24558;BME280;12726;49.148;8.582;2023-03-03T09:13:46;100910.44;;;12.03;45.68
24558;BME280;12726;49.148;8.582;2023-03-03T09:16:38;100914.53;;;12.26;46.18
24558;BME280;12726;49.148;8.582;2023-03-03T09:19:25;100912.13;;;12.69;45.44
24558;BME280;12726;49.148;8.582;2023-03-03T09:22:17;100913.88;;;12.37;45.66
24558;BME280;12726;49.148;8.582;2023-03-03T09:25:13;100906.97;;;13.05;44.34
24558;BME280;12726;49.148;8.582;2023-03-03T09:28:17;100908.81;;;13.49;42.80
24558;BME280;12726;49.148;8.582;2023-03-03T09:31:19;100911.50;;;13.18;42.33
24558;BME280;12726;49.148;8.582;2023-03-03T09:34:15;100916.78;;;13.38;43.65
24558;BME280;12726;49.148;8.582;2023-03-03T09:37:17;100906.47;;;13.53;41.93
24558;BME280;12726;49.148;8.582;2023-03-03T09:40:18;100915.34;;;13.91;41.49
24558;BME280;12726;49.148;8.582;2023-03-03T09:43:21;100915.94;;;13.68;42.05
24558;BME280;12726;49.148;8.582;2023-03-03T09:46:17;100921.84;;;13.84;41.82
24558;BME280;12726;49.148;8.582;2023-03-03T09:49:15;100921.34;;;13.37;41.51
24558;BME280;12726;49.148;8.582;2023-03-03T09:52:18;100921.44;;;13.24;41.68
24558;BME280;12726;49.148;8.582;2023-03-03T09:55:15;100920.16;;;13.33;41.16
24558;BME280;12726;49.148;8.582;2023-03-03T09:58:23;100924.72;;;13.89;41.50
24558;BME280;12726;49.148;8.582;2023-03-03T10:04:41;100916.75;;;14.37;39.39
24558;BME280;12726;49.148;8.582;2023-03-03T10:07:38;100919.38;;;14.00;39.65
24558;BME280;12726;49.148;8.582;2023-03-03T10:10:52;100912.78;;;14.76;38.77
24558;BME280;12726;49.148;8.582;2023-03-03T10:13:55;100915.28;;;14.77;38.89
24558;BME280;12726;49.148;8.582;2023-03-03T10:16:57;100919.34;;;15.16;37.40
24558;BME280;12726;49.148;8.582;2023-03-03T10:19:51;100913.88;;;15.76;36.89
24558;BME280;12726;49.148;8.582;2023-03-03T10:22:49;100908.56;;;15.40;36.49
24558;BME280;12726;49.148;8.582;2023-03-03T10:25:38;100909.28;;;16.12;36.17
24558;BME280;12726;49.148;8.582;2023-03-03T10:28:39;100905.34;;;15.61;36.32
24558;BME280;12726;49.148;8.582;2023-03-03T10:31:36;100912.47;;;16.32;34.55
24558;BME280;12726;49.148;8.582;2023-03-03T10:34:43;100910.09;;;16.47;33.86
24558;BME280;12726;49.148;8.582;2023-03-03T10:37:36;100915.16;;;16.20;33.99
24558;BME280;12726;49.148;8.582;2023-03-03T10:40:28;100916.72;;;16.04;35.15
24558;BME280;12726;49.148;8.582;2023-03-03T10:43:46;100917.91;;;16.32;35.15
24558;BME280;12726;49.148;8.582;2023-03-03T10:46:51;100918.25;;;16.24;33.64
24558;BME280;12726;49.148;8.582;2023-03-03T10:49:47;100919.63;;;15.68;33.75
24558;BME280;12726;49.148;8.582;2023-03-03T10:52:38;100913.72;;;15.71;34.53
24558;BME280;12726;49.148;8.582;2023-03-03T10:55:42;100915.06;;;16.15;33.93
24558;BME280;12726;49.148;8.582;2023-03-03T10:58:44;100920.63;;;16.09;33.22
24558;BME280;12726;49.148;8.582;2023-03-03T11:01:39;100920.97;;;16.24;33.59
24558;BME280;12726;49.148;8.582;2023-03-03T11:05:08;100921.66;;;16.42;33.27
24558;BME280;12726;49.148;8.582;2023-03-03T11:08:00;100920.25;;;17.03;32.09
24558;BME280;12726;49.148;8.582;2023-03-03T11:11:05;100918.91;;;17.06;31.84
24558;BME280;12726;49.148;8.582;2023-03-03T11:13:55;100917.03;;;17.06;31.33
24558;BME280;12726;49.148;8.582;2023-03-03T11:16:55;100901.84;;;17.67;31.05
24558;BME280;12726;49.148;8.582;2023-03-03T11:19:58;100901.81;;;17.84;30.68
24558;BME280;12726;49.148;8.582;2023-03-03T11:22:52;100899.66;;;18.41;29.14
24558;BME280;12726;49.148;8.582;2023-03-03T11:25:46;100902.91;;;18.38;29.38
24558;BME280;12726;49.148;8.582;2023-03-03T11:28:55;100903.22;;;17.70;30.31
24558;BME280;12726;49.148;8.582;2023-03-03T11:31:47;100891.09;;;17.94;29.43
24558;BME280;12726;49.148;8.582;2023-03-03T11:34:49;100897.28;;;17.11;31.73
24558;BME280;12726;49.148;8.582;2023-03-03T11:37:40;100897.66;;;16.63;31.82
24558;BME280;12726;49.148;8.582;2023-03-03T11:40:31;100890.19;;;16.98;32.57
24558;BME280;12726;49.148;8.582;2023-03-03T11:43:23;100885.22;;;17.85;30.97
24558;BME280;12726;49.148;8.582;2023-03-03T11:46:14;100902.16;;;17.71;30.86
24558;BME280;12726;49.148;8.582;2023-03-03T11:49:04;100890.03;;;17.95;29.64
24558;BME280;12726;49.148;8.582;2023-03-03T11:51:57;100877.78;;;17.97;29.55
24558;BME280;12726;49.148;8.582;2023-03-03T11:54:48;100885.41;;;17.79;30.59
24558;BME280;12726;49.148;8.582;2023-03-03T11:57:39;100878.09;;;17.34;30.74
24558;BME280;12726;49.148;8.582;2023-03-03T12:00:30;100869.94;;;18.01;29.97
24558;BME280;12726;49.148;8.582;2023-03-03T12:03:25;100869.78;;;18.08;30.53
24558;BME280;12726;49.148;8.582;2023-03-03T12:06:21;100864.44;;;17.96;30.13
24558;BME280;12726;49.148;8.582;2023-03-03T12:09:15;100863.00;;;18.10;30.17
24558;BME280;12726;49.148;8.582;2023-03-03T12:12:11;100861.66;;;18.13;29.58
24558;BME280;12726;49.148;8.582;2023-03-03T12:15:08;100862.00;;;19.03;28.48
24558;BME280;12726;49.148;8.582;2023-03-03T12:18:23;100854.72;;;19.14;28.61
24558;BME280;12726;49.148;8.582;2023-03-03T12:21:23;100853.41;;;18.24;29.18
24558;BME280;12726;49.148;8.582;2023-03-03T12:24:22;100844.84;;;17.99;29.97
24558;BME280;12726;49.148;8.582;2023-03-03T12:27:18;100850.44;;;18.09;30.72
24558;BME280;12726;49.148;8.582;2023-03-03T12:30:15;100852.53;;;17.35;30.93
24558;BME280;12726;49.148;8.582;2023-03-03T12:33:16;100855.16;;;16.33;33.25
24558;BME280;12726;49.148;8.582;2023-03-03T12:36:19;100841.78;;;15.27;35.36
24558;BME280;12726;49.148;8.582;2023-03-03T12:39:11;100840.97;;;14.97;35.90
24558;BME280;12726;49.148;8.582;2023-03-03T12:42:11;100828.44;;;15.25;35.18
24558;BME280;12726;49.148;8.582;2023-03-03T12:45:08;100829.53;;;14.65;35.38
24558;BME280;12726;49.148;8.582;2023-03-03T12:48:00;100832.25;;;14.28;36.44
24558;BME280;12726;49.148;8.582;2023-03-03T12:50:56;100836.00;;;14.09;37.55
24558;BME280;12726;49.148;8.582;2023-03-03T12:57:20;100838.63;;;13.29;39.40
24558;BME280;12726;49.148;8.582;2023-03-03T13:00:21;100837.88;;;13.16;40.25
24558;BME280;12726;49.148;8.582;2023-03-03T13:03:13;100835.25;;;12.65;41.11
24558;BME280;12726;49.148;8.582;2023-03-03T13:06:11;100831.19;;;12.49;41.60
24558;BME280;12726;49.148;8.582;2023-03-03T13:09:19;100832.84;;;12.88;40.40
24558;BME280;12726;49.148;8.582;2023-03-03T13:15:21;100819.81;;;12.72;40.84
24558;BME280;12726;49.148;8.582;2023-03-03T13:18:27;100819.50;;;12.62;42.18
24558;BME280;12726;49.148;8.582;2023-03-03T13:21:19;100810.25;;;12.76;41.45
24558;BME280;12726;49.148;8.582;2023-03-03T13:24:16;100815.31;;;12.97;41.70
24558;BME280;12726;49.148;8.582;2023-03-03T13:27:06;100820.03;;;12.32;42.62
24558;BME280;12726;49.148;8.582;2023-03-03T13:29:56;100815.75;;;12.11;43.11
24558;BME280;12726;49.148;8.582;2023-03-03T13:32:48;100816.69;;;12.37;42.42
24558;BME280;12726;49.148;8.582;2023-03-03T13:35:40;100819.81;;;12.34;43.09
24558;BME280;12726;49.148;8.582;2023-03-03T13:38:29;100820.19;;;12.44;42.53
24558;BME280;12726;49.148;8.582;2023-03-03T13:41:22;100815.03;;;12.36;43.14
24558;BME280;12726;49.148;8.582;2023-03-03T13:44:12;100809.34;;;12.57;42.20
24558;BME280;12726;49.148;8.582;2023-03-03T13:47:06;100802.66;;;12.60;42.06
24558;BME280;12726;49.148;8.582;2023-03-03T13:50:09;100800.69;;;12.42;42.80
24558;BME280;12726;49.148;8.582;2023-03-03T13:53:10;100792.59;;;12.42;42.51
24558;BME280;12726;49.148;8.582;2023-03-03T13:56:12;100796.47;;;12.01;43.37
24558;BME280;12726;49.148;8.582;2023-03-03T13:59:09;100802.91;;;11.94;44.18
24558;BME280;12726;49.148;8.582;2023-03-03T14:02:04;100798.53;;;12.06;43.14
24558;BME280;12726;49.148;8.582;2023-03-03T14:04:53;100773.28;;;11.61;44.20
24558;BME280;12726;49.148;8.582;2023-03-03T14:07:44;100792.38;;;11.59;45.12
24558;BME280;12726;49.148;8.582;2023-03-03T14:10:41;100772.50;;;11.34;45.43
24558;BME280;12726;49.148;8.582;2023-03-03T14:13:30;100780.78;;;11.26;46.39
24558;BME280;12726;49.148;8.582;2023-03-03T14:16:27;100772.31;;;11.29;46.13
24558;BME280;12726;49.148;8.582;2023-03-03T14:19:19;100775.00;;;11.22;46.33
24558;BME280;12726;49.148;8.582;2023-03-03T14:22:15;100777.91;;;11.01;46.86
24558;BME280;12726;49.148;8.582;2023-03-03T14:25:08;100775.16;;;10.75;47.34
24558;BME280;12726;49.148;8.582;2023-03-03T14:28:09;100779.69;;;10.61;48.20
24558;BME280;12726;49.148;8.582;2023-03-03T14:30:56;100768.66;;;10.36;48.57
24558;BME280;12726;49.148;8.582;2023-03-03T14:33:54;100770.75;;;10.54;48.70
24558;BME280;12726;49.148;8.582;2023-03-03T14:36:42;100773.78;;;10.31;48.60
24558;BME280;12726;49.148;8.582;2023-03-03T14:39:31;100769.88;;;10.34;49.09
24558;BME280;12726;49.148;8.582;2023-03-03T14:42:30;100769.06;;;10.40;49.04
24558;BME280;12726;49.148;8.582;2023-03-03T14:45:28;100766.78;;;10.37;48.65
24558;BME280;12726;49.148;8.582;2023-03-03T14:48:16;100770.38;;;10.16;49.40
24558;BME280;12726;49.148;8.582;2023-03-03T14:51:23;100766.69;;;10.17;49.60
24558;BME280;12726;49.148;8.582;2023-03-03T14:54:18;100761.25;;;10.10;49.60
24558;BME280;12726;49.148;8.582;2023-03-03T14:57:08;100764.56;;;10.06;50.10
24558;BME280;12726;49.148;8.582;2023-03-03T14:59:59;100754.19;;;10.03;49.98
24558;BME280;12726;49.148;8.582;2023-03-03T15:03:00;100760.00;;;10.00;49.79
24558;BME280;12726;49.148;8.582;2023-03-03T15:05:50;100754.56;;;9.87;49.66
24558;BME280;12726;49.148;8.582;2023-03-03T15:08:39;100750.66;;;10.02;49.49